McGuffey, OH (45859)

2:41 PM EST on February 13, 2016 (GMT -0500)
Lima Allen County | | Change Station
CLOSE
Current Station
Airport
Location: Lima,
Elevation: 974 ft
Nearby Weather Stations

Elev 974 ft 40.71 °N, 84.03 °W | Updated 5 minutes ago

Overcast
Overcast
15 °F
Feels Like 0 °F
N
15
Wind Variable Wind from West

Today
High -- | Low -- °F
--% Chance of Precip.
Yesterday
High -- | Low -- °F
Precip. -- in
Pressure 30.45 in
Visibility 9.0 miles
Clouds Mostly Cloudy 3100 ft
Overcast 4500 ft
Windchill 0 °F
Dew Point 6 °F
Humidity 68%
Rainfall 0.00 in
Snow Depth Not available.
7:32 AM 6:07 PM
Waxing Crescent, 33% visible
SPECI KAOH 131936Z AUTO 28013KT 9SM BKN031 OVC045 M09/M14 A3045 RMK AO2 SNB23E34 P0000 T10941144
Pressure 30.45 in
Visibility 9.0 miles
Clouds Mostly Cloudy 3100 ft
Overcast 4500 ft
Windchill 0 °F
Dew Point 6 °F
Humidity 68%
Rainfall 0.00 in
Snow Depth Not available.
7:32 AM 6:07 PM
Waxing Crescent, 33% visible
SPECI KAOH 131936Z AUTO 28013KT 9SM BKN031 OVC045 M09/M14 A3045 RMK AO2 SNB23E34 P0000 T10941144

10-Day Weather Forecast

Almanac

Astronomy

Feb. 13, 2016 Rise Set
Actual Time
Civil Twilight
Nautical Twilight
Astronomical Twilight
Moon
Length of Visible Light
Length of Day
Tomorrow will be .
, % of the Moon is Illuminated

Today's Extremes

State Highs State Lows

Community

WunderPhotos

Upload Photos

1,892,642 photos uploaded!

WunderBlog® & News

Nearby

Air Quality

  Air Quality AQ Index Pollutant
Not available.

Snow Depth

Station Depth Elevation

Earthquake Activity

City Distance Mag. Time & Date
Minimum magnitude displayed is 2.5.

Coastal Water Temperatures

Place Temperature

Stations

Nearby Weather Stations

Station Location Temp. Windchill Dew Point Humidity Wind Precip. Elev Updated Type
                   

Watches & Warnings

There are currently no watches in effect.